createdAt,value
2023-02-19T00:01:30.067Z,5.30
2023-02-19T00:04:05.957Z,4.70
2023-02-19T00:06:34.405Z,5.70
2023-02-19T00:09:02.194Z,5.30
2023-02-19T00:11:31.546Z,3.90
2023-02-19T00:13:59.925Z,6.00
2023-02-19T00:16:29.577Z,5.50
2023-02-19T00:18:59.087Z,3.50
2023-02-19T00:21:26.269Z,4.20
2023-02-19T00:23:57.041Z,4.90
2023-02-19T00:26:24.154Z,5.10
2023-02-19T00:28:52.225Z,5.70
2023-02-19T00:31:25.819Z,6.60
2023-02-19T00:33:55.424Z,6.80
2023-02-19T00:36:23.349Z,4.70
2023-02-19T00:38:51.034Z,5.00
2023-02-19T00:41:19.643Z,5.80
2023-02-19T00:43:50.469Z,6.10
2023-02-19T00:46:20.000Z,4.70
2023-02-19T00:48:47.378Z,5.90
2023-02-19T00:51:15.342Z,4.80
2023-02-19T00:53:42.290Z,6.90
2023-02-19T00:56:09.831Z,5.20
2023-02-19T00:58:37.318Z,3.30
2023-02-19T01:01:06.668Z,6.20
2023-02-19T01:03:37.365Z,5.50
2023-02-19T01:06:06.428Z,4.30
2023-02-19T01:08:34.226Z,5.50
2023-02-19T01:11:02.855Z,5.80
2023-02-19T01:13:30.405Z,4.60
2023-02-19T01:16:27.654Z,5.70
2023-02-19T01:18:55.107Z,4.10
2023-02-19T01:21:24.656Z,4.40
2023-02-19T01:23:52.755Z,6.10
2023-02-19T01:26:22.522Z,5.20
2023-02-19T01:31:19.496Z,4.70
2023-02-19T01:33:48.725Z,4.20
2023-02-19T01:36:16.602Z,3.50
2023-02-19T01:38:44.107Z,5.60
2023-02-19T01:41:14.811Z,3.60
2023-02-19T01:43:56.993Z,4.00
2023-02-19T01:46:28.726Z,3.70
2023-02-19T01:48:59.620Z,6.10
2023-02-19T01:51:28.234Z,4.70
2023-02-19T01:53:59.723Z,4.90
2023-02-19T01:56:29.166Z,3.20
2023-02-19T01:58:56.107Z,6.40
2023-02-19T02:01:23.071Z,4.50
2023-02-19T02:03:50.699Z,4.10
2023-02-19T02:06:31.744Z,4.00
2023-02-19T02:09:13.420Z,3.60
2023-02-19T02:11:44.702Z,3.40
2023-02-19T02:14:12.599Z,3.10
2023-02-19T02:16:56.109Z,2.20
2023-02-19T02:19:52.604Z,4.60
2023-02-19T02:22:26.993Z,2.50
2023-02-19T02:25:23.242Z,2.80
2023-02-19T02:28:19.864Z,2.90
2023-02-19T02:30:50.868Z,3.60
2023-02-19T02:34:04.134Z,3.00
2023-02-19T02:36:38.013Z,2.30
2023-02-19T02:39:08.570Z,3.00
2023-02-19T02:41:35.358Z,2.80
2023-02-19T02:44:02.227Z,3.10
2023-02-19T02:46:35.854Z,3.30
2023-02-19T02:49:06.832Z,2.80
2023-02-19T02:51:33.989Z,3.60
2023-02-19T02:54:28.141Z,4.90
2023-02-19T02:56:56.674Z,2.50
2023-02-19T02:59:27.123Z,5.00
2023-02-19T03:02:12.508Z,3.30
2023-02-19T03:05:23.728Z,4.80
2023-02-19T03:07:57.035Z,3.40
2023-02-19T03:10:31.902Z,4.50
2023-02-19T03:13:16.168Z,5.70
2023-02-19T03:16:10.468Z,3.80
2023-02-19T03:18:55.691Z,3.60
2023-02-19T03:21:24.140Z,4.10
2023-02-19T03:24:05.963Z,5.70
2023-02-19T03:26:34.328Z,4.30
2023-02-19T03:29:17.236Z,5.10
2023-02-19T03:31:46.254Z,7.20
2023-02-19T03:34:18.443Z,6.60
2023-02-19T03:36:53.996Z,6.00
2023-02-19T03:39:23.140Z,5.00
2023-02-19T03:41:55.563Z,5.40
2023-02-19T03:44:28.307Z,6.10
2023-02-19T03:47:03.741Z,5.10
2023-02-19T03:50:07.690Z,4.10
2023-02-19T03:52:48.668Z,4.80
2023-02-19T03:55:31.093Z,4.10
2023-02-19T03:58:18.547Z,5.50
2023-02-19T04:01:09.323Z,6.20
2023-02-19T04:03:53.296Z,4.50
2023-02-19T04:06:26.141Z,6.00
2023-02-19T04:08:57.005Z,7.30
2023-02-19T04:11:25.565Z,5.30
2023-02-19T04:14:10.466Z,5.10
2023-02-19T04:16:42.839Z,4.90
2023-02-19T04:19:14.020Z,5.60
2023-02-19T04:21:42.436Z,5.30
2023-02-19T04:24:22.575Z,4.20
2023-02-19T04:26:49.772Z,5.80
2023-02-19T04:29:16.573Z,4.50
2023-02-19T04:31:43.417Z,4.10
2023-02-19T04:34:10.157Z,4.10
2023-02-19T04:36:36.897Z,5.80
2023-02-19T04:39:03.647Z,4.60
2023-02-19T04:41:30.341Z,4.70
2023-02-19T04:43:57.010Z,4.00
2023-02-19T04:46:23.734Z,4.20
2023-02-19T04:48:50.748Z,4.00
2023-02-19T04:51:17.757Z,5.20
2023-02-19T04:53:44.686Z,4.40
2023-02-19T04:56:14.483Z,4.50
2023-02-19T05:01:10.542Z,5.20
2023-02-19T05:03:37.968Z,4.70
2023-02-19T05:06:10.805Z,4.40
2023-02-19T05:08:37.879Z,3.80
2023-02-19T05:11:07.225Z,4.60
2023-02-19T05:13:34.461Z,4.80
2023-02-19T05:16:07.314Z,3.30
2023-02-19T05:18:35.039Z,4.00
2023-02-19T05:21:02.114Z,3.90
2023-02-19T05:23:29.007Z,5.00
2023-02-19T05:25:55.906Z,4.00
2023-02-19T05:28:28.686Z,4.50
2023-02-19T05:30:57.410Z,3.70
2023-02-19T05:33:26.360Z,4.40
2023-02-19T05:35:55.357Z,3.50
2023-02-19T05:38:23.283Z,3.10
2023-02-19T05:40:50.928Z,3.80
2023-02-19T05:43:18.297Z,4.00
2023-02-19T05:45:45.178Z,3.00
2023-02-19T05:48:12.925Z,4.00
2023-02-19T05:50:40.106Z,3.70
2023-02-19T05:53:07.013Z,4.10
2023-02-19T05:55:37.016Z,3.90
2023-02-19T05:58:04.134Z,2.90
2023-02-19T06:00:33.045Z,3.50
2023-02-19T06:02:59.927Z,3.20
2023-02-19T06:05:27.252Z,4.30
2023-02-19T06:07:53.970Z,3.80
2023-02-19T06:10:20.836Z,5.40
2023-02-19T06:12:47.593Z,5.00
2023-02-19T06:15:14.313Z,5.20
2023-02-19T06:17:41.067Z,5.60
2023-02-19T06:20:08.466Z,5.80
2023-02-19T06:22:35.450Z,6.20
2023-02-19T06:25:02.358Z,6.80
2023-02-19T06:27:29.309Z,7.20
2023-02-19T06:29:56.028Z,4.40
2023-02-19T06:32:23.570Z,5.90
2023-02-19T06:34:50.490Z,4.70
2023-02-19T06:37:17.263Z,7.00
2023-02-19T06:39:44.194Z,6.70
2023-02-19T06:42:11.121Z,5.80
2023-02-19T06:44:37.860Z,6.50
2023-02-19T06:47:04.592Z,6.10
2023-02-19T06:49:31.290Z,7.30
2023-02-19T06:51:59.579Z,7.30
2023-02-19T06:54:27.001Z,6.40
2023-02-19T06:56:53.965Z,6.70
2023-02-19T06:59:20.653Z,7.20
2023-02-19T07:01:47.541Z,6.20
2023-02-19T07:04:14.722Z,6.80
2023-02-19T07:06:41.732Z,8.00
2023-02-19T07:09:09.857Z,7.40
2023-02-19T07:11:39.407Z,9.50
2023-02-19T07:14:10.780Z,7.10
2023-02-19T07:16:39.127Z,9.10
2023-02-19T07:19:06.095Z,8.80
2023-02-19T07:21:37.663Z,14.40
2023-02-19T07:24:05.757Z,16.70
2023-02-19T07:26:32.919Z,13.40
2023-02-19T07:28:59.796Z,13.30
2023-02-19T07:31:27.286Z,9.50
2023-02-19T07:33:55.358Z,9.80
2023-02-19T07:36:24.098Z,8.50
2023-02-19T07:38:55.863Z,12.00
2023-02-19T07:41:23.799Z,14.60
2023-02-19T07:43:50.718Z,17.30
2023-02-19T07:46:18.089Z,16.70
2023-02-19T07:48:44.887Z,15.30
2023-02-19T07:51:16.691Z,17.60
2023-02-19T07:53:44.031Z,15.00
2023-02-19T07:56:13.044Z,17.60
2023-02-19T07:58:40.675Z,19.80
2023-02-19T08:01:10.724Z,15.10
2023-02-19T08:03:38.674Z,16.70
2023-02-19T08:06:06.475Z,18.60
2023-02-19T08:08:33.419Z,18.10
2023-02-19T08:11:16.117Z,14.40
2023-02-19T08:13:43.030Z,14.40
2023-02-19T08:16:22.100Z,13.10
2023-02-19T08:18:53.696Z,13.40
2023-02-19T08:21:21.159Z,13.70
2023-02-19T08:23:50.862Z,13.30
2023-02-19T08:26:17.913Z,11.20
2023-02-19T08:28:44.669Z,9.70
2023-02-19T08:31:13.469Z,9.50
2023-02-19T08:33:40.606Z,9.80
2023-02-19T08:36:09.490Z,8.50
2023-02-19T08:38:36.820Z,7.90
2023-02-19T08:41:09.699Z,8.50
2023-02-19T08:43:36.945Z,10.10
2023-02-19T08:46:07.275Z,9.00
2023-02-19T08:48:34.210Z,10.70
2023-02-19T08:51:04.150Z,9.50
2023-02-19T08:53:32.451Z,9.40
2023-02-19T08:55:59.459Z,9.20
2023-02-19T08:58:26.622Z,8.70
2023-02-19T09:00:53.911Z,7.20
2023-02-19T09:03:21.330Z,7.20
2023-02-19T09:05:48.502Z,7.40
2023-02-19T09:08:16.163Z,5.70
2023-02-19T09:10:43.191Z,4.80
2023-02-19T09:13:10.014Z,5.90
2023-02-19T09:15:39.468Z,4.70
2023-02-19T09:18:06.503Z,4.00
2023-02-19T09:20:33.243Z,5.70
2023-02-19T09:23:01.808Z,6.30
2023-02-19T09:25:28.690Z,5.20
2023-02-19T09:27:56.433Z,6.70
2023-02-19T09:30:23.470Z,5.70
2023-02-19T09:32:50.501Z,4.70
2023-02-19T09:35:17.401Z,6.50
2023-02-19T09:37:44.354Z,3.90
2023-02-19T09:40:11.566Z,5.50
2023-02-19T09:42:42.798Z,4.70
2023-02-19T09:45:20.262Z,4.80
2023-02-19T09:47:48.043Z,5.60
2023-02-19T09:50:21.219Z,6.80
2023-02-19T09:52:52.254Z,3.90
2023-02-19T09:55:26.422Z,5.60
2023-02-19T09:57:53.673Z,7.80
2023-02-19T10:00:22.423Z,5.70
2023-02-19T10:02:54.970Z,7.40
2023-02-19T10:05:23.802Z,7.80
2023-02-19T10:07:54.331Z,10.80
2023-02-19T10:10:28.362Z,9.40
2023-02-19T10:13:06.167Z,10.50
2023-02-19T10:15:39.339Z,14.00
2023-02-19T10:18:09.429Z,12.80
2023-02-19T10:20:37.771Z,16.60
2023-02-19T10:23:07.685Z,13.70
2023-02-19T10:25:43.467Z,12.50
2023-02-19T10:28:15.058Z,13.10
2023-02-19T10:30:42.204Z,11.40
2023-02-19T10:33:14.829Z,13.40
2023-02-19T10:35:58.548Z,11.00
2023-02-19T10:38:28.397Z,10.10
2023-02-19T10:43:33.985Z,16.40
2023-02-19T10:46:08.651Z,14.00
2023-02-19T10:48:47.267Z,8.40
2023-02-19T10:51:21.766Z,6.90
2023-02-19T10:53:51.954Z,8.10
2023-02-19T10:56:32.128Z,6.90
2023-02-19T10:59:19.025Z,8.90
2023-02-19T11:02:01.984Z,8.70
2023-02-19T11:04:38.474Z,8.70
2023-02-19T11:07:17.293Z,7.90
2023-02-19T11:09:46.812Z,9.10
2023-02-19T11:12:22.807Z,11.90
2023-02-19T11:14:49.647Z,14.00
2023-02-19T11:17:29.327Z,12.50
2023-02-19T11:20:13.287Z,4.20
2023-02-19T11:22:43.140Z,3.00
2023-02-19T11:30:45.256Z,3.80
2023-02-19T11:33:22.313Z,4.30
2023-02-19T11:36:15.173Z,2.40
2023-02-19T11:38:42.862Z,3.00
2023-02-19T11:41:21.756Z,3.50
2023-02-19T11:44:08.523Z,5.00
2023-02-19T11:46:55.495Z,4.10
2023-02-19T11:49:39.085Z,4.20
2023-02-19T11:52:27.910Z,3.00
2023-02-19T11:55:01.177Z,5.20
2023-02-19T11:57:47.917Z,3.40
2023-02-19T12:00:27.574Z,3.40
2023-02-19T12:03:03.302Z,3.20
2023-02-19T12:05:35.052Z,2.50
2023-02-19T12:08:29.724Z,2.70
2023-02-19T12:11:10.466Z,4.70
2023-02-19T12:13:54.298Z,3.20
2023-02-19T12:16:21.098Z,3.60
2023-02-19T12:19:02.314Z,4.30
2023-02-19T12:21:44.089Z,3.40
2023-02-19T12:24:38.792Z,4.40
2023-02-19T12:27:33.405Z,3.90
2023-02-19T12:30:27.964Z,5.60
2023-02-19T12:33:11.651Z,3.80
2023-02-19T12:35:50.480Z,6.20
2023-02-19T12:38:36.141Z,5.40
2023-02-19T12:41:25.710Z,5.40
2023-02-19T12:44:05.376Z,6.30
2023-02-19T12:46:54.335Z,10.20
2023-02-19T12:49:30.423Z,6.70
2023-02-19T12:52:26.093Z,7.60
2023-02-19T12:54:55.995Z,4.80
2023-02-19T12:57:35.472Z,5.80
2023-02-19T13:00:24.901Z,11.50
2023-02-19T13:03:13.107Z,10.80
2023-02-19T13:06:24.675Z,11.70
2023-02-19T13:09:06.888Z,12.80
2023-02-19T13:11:44.218Z,11.30
2023-02-19T13:14:42.894Z,11.50
2023-02-19T13:17:25.884Z,13.90
2023-02-19T13:19:58.249Z,13.10
2023-02-19T13:22:56.505Z,14.80
2023-02-19T13:25:38.056Z,11.20
2023-02-19T13:28:17.286Z,13.50
2023-02-19T13:31:01.899Z,15.00
2023-02-19T13:33:44.295Z,15.50
2023-02-19T13:36:20.430Z,12.80
2023-02-19T13:38:49.837Z,16.90
2023-02-19T13:41:26.745Z,17.70
2023-02-19T13:44:06.456Z,13.10
2023-02-19T13:46:40.310Z,13.30
2023-02-19T13:49:24.895Z,11.50
2023-02-19T13:51:56.534Z,13.00
2023-02-19T13:54:27.636Z,14.80
2023-02-19T13:57:22.575Z,13.70
2023-02-19T14:00:03.175Z,12.20
2023-02-19T14:02:34.778Z,15.20
2023-02-19T14:05:07.580Z,16.10
2023-02-19T14:07:53.834Z,14.60
2023-02-19T14:10:48.279Z,15.30
2023-02-19T14:14:06.718Z,12.60
2023-02-19T14:17:08.201Z,14.40
2023-02-19T14:19:50.931Z,9.30
2023-02-19T14:23:05.746Z,11.20
2023-02-19T14:25:42.041Z,8.60
2023-02-19T14:28:30.609Z,9.00
2023-02-19T14:31:03.085Z,8.70
2023-02-19T14:33:34.957Z,9.30
2023-02-19T14:36:09.569Z,12.10
2023-02-19T14:38:52.159Z,13.20
2023-02-19T14:41:23.353Z,12.10
2023-02-19T14:43:54.424Z,10.60
2023-02-19T14:46:36.849Z,11.80
2023-02-19T14:49:17.056Z,9.00
2023-02-19T14:51:47.570Z,9.90
2023-02-19T14:54:19.380Z,10.90
2023-02-19T14:56:51.589Z,11.00
2023-02-19T14:59:23.482Z,10.30
2023-02-19T15:01:55.254Z,11.40
2023-02-19T15:04:24.897Z,11.30
2023-02-19T15:06:53.279Z,12.20
2023-02-19T15:09:22.261Z,9.60
2023-02-19T15:11:49.646Z,13.80
2023-02-19T15:14:22.617Z,10.60
2023-02-19T15:16:54.612Z,9.80
2023-02-19T15:19:22.872Z,10.90
2023-02-19T15:21:50.566Z,10.60
2023-02-19T15:24:19.153Z,9.30
2023-02-19T15:26:51.141Z,10.20
2023-02-19T15:29:20.854Z,10.00
2023-02-19T15:31:53.521Z,9.50
2023-02-19T15:34:21.991Z,9.90
2023-02-19T15:36:53.056Z,9.90
2023-02-19T15:39:26.086Z,10.50
2023-02-19T15:42:00.268Z,11.30
2023-02-19T15:44:30.702Z,10.50
2023-02-19T15:46:59.639Z,11.10
2023-02-19T15:49:41.705Z,10.90
2023-02-19T15:52:12.830Z,10.50
2023-02-19T15:54:45.813Z,11.40
2023-02-19T15:57:21.327Z,11.20
2023-02-19T15:59:56.637Z,12.60
2023-02-19T16:02:23.881Z,11.20
2023-02-19T16:04:50.954Z,12.60
2023-02-19T16:07:35.574Z,12.60
2023-02-19T16:10:23.787Z,11.00
2023-02-19T16:13:01.646Z,10.70
2023-02-19T16:15:31.192Z,11.00
2023-02-19T16:17:59.394Z,13.00
2023-02-19T16:20:35.079Z,17.40
2023-02-19T16:23:04.518Z,14.80
2023-02-19T16:25:46.281Z,15.20
2023-02-19T16:28:26.634Z,15.10
2023-02-19T16:31:02.867Z,17.00
2023-02-19T16:33:46.501Z,16.70
2023-02-19T16:36:41.994Z,15.80
2023-02-19T16:39:08.695Z,14.50
2023-02-19T16:41:47.875Z,14.50
2023-02-19T16:44:28.488Z,13.40
2023-02-19T16:47:02.370Z,12.40
2023-02-19T16:49:29.533Z,14.10
2023-02-19T16:51:58.803Z,13.70
2023-02-19T16:54:25.836Z,14.50
2023-02-19T16:56:52.718Z,14.60
2023-02-19T16:59:19.395Z,12.90
2023-02-19T17:01:46.381Z,13.20
2023-02-19T17:04:15.829Z,13.00
2023-02-19T17:06:43.252Z,15.30
2023-02-19T17:09:10.469Z,12.60
2023-02-19T17:11:37.553Z,16.20
2023-02-19T17:14:04.445Z,19.30
2023-02-19T17:16:43.710Z,18.40
2023-02-19T17:19:14.491Z,14.70
2023-02-19T17:21:41.330Z,20.60
2023-02-19T17:24:08.487Z,16.30
2023-02-19T17:26:35.572Z,14.00
2023-02-19T17:29:05.454Z,15.90
2023-02-19T17:33:59.289Z,17.00
2023-02-19T17:36:31.238Z,15.60
2023-02-19T17:38:59.562Z,13.70
2023-02-19T17:41:26.518Z,15.30
2023-02-19T17:43:53.875Z,15.50
2023-02-19T17:46:24.891Z,18.20
2023-02-19T17:48:53.076Z,23.00
2023-02-19T17:51:21.005Z,19.90
2023-02-19T17:53:47.895Z,23.20
2023-02-19T17:56:21.093Z,15.40
2023-02-19T17:58:48.195Z,15.10
2023-02-19T18:01:15.763Z,12.30
2023-02-19T18:03:43.010Z,12.30
2023-02-19T18:06:10.012Z,22.90
2023-02-19T18:08:38.078Z,18.40
2023-02-19T18:11:06.833Z,16.00
2023-02-19T18:13:33.525Z,12.90
2023-02-19T18:16:00.291Z,12.50
2023-02-19T18:18:27.026Z,15.30
2023-02-19T18:20:53.967Z,16.40
2023-02-19T18:23:21.518Z,19.00
2023-02-19T18:25:48.321Z,21.90
2023-02-19T18:28:16.139Z,25.70
2023-02-19T18:30:43.406Z,18.10
2023-02-19T18:33:13.486Z,15.60
2023-02-19T18:35:40.638Z,16.70
2023-02-19T18:38:07.437Z,17.20
2023-02-19T18:40:34.535Z,16.60
2023-02-19T18:43:01.312Z,19.80
2023-02-19T18:45:29.698Z,17.80
2023-02-19T18:47:56.633Z,20.30
2023-02-19T18:50:23.628Z,17.70
2023-02-19T18:52:50.455Z,17.30
2023-02-19T18:55:17.292Z,19.50
2023-02-19T18:57:46.192Z,15.30
2023-02-19T19:00:19.220Z,16.10
2023-02-19T19:02:49.676Z,17.70
2023-02-19T19:05:23.068Z,17.40
2023-02-19T19:07:55.707Z,14.80
2023-02-19T19:10:23.612Z,15.10
2023-02-19T19:12:50.833Z,17.90
2023-02-19T19:15:18.726Z,17.10
2023-02-19T19:17:47.217Z,16.10
2023-02-19T19:20:20.207Z,20.70
2023-02-19T19:22:53.162Z,17.10
2023-02-19T19:25:21.771Z,15.50
2023-02-19T19:27:50.691Z,17.90
2023-02-19T19:30:20.164Z,14.10
2023-02-19T19:32:52.124Z,18.70
2023-02-19T19:35:20.199Z,19.20
2023-02-19T19:37:47.096Z,17.20
2023-02-19T19:40:15.862Z,18.20
2023-02-19T19:42:44.678Z,16.60
2023-02-19T19:45:12.046Z,23.20
2023-02-19T19:47:38.819Z,17.80
2023-02-19T19:50:06.327Z,18.20
2023-02-19T19:52:34.169Z,18.00
2023-02-19T19:55:01.021Z,20.10
2023-02-19T19:57:28.294Z,21.40
2023-02-19T19:59:55.194Z,18.50
2023-02-19T20:02:24.057Z,17.30
2023-02-19T20:04:51.022Z,17.10
2023-02-19T20:07:18.115Z,15.10
2023-02-19T20:09:49.598Z,17.50
2023-02-19T20:12:18.028Z,16.20
2023-02-19T20:14:46.521Z,14.00
2023-02-19T20:17:14.548Z,18.80
2023-02-19T20:19:41.490Z,17.10
2023-02-19T20:22:08.453Z,20.00
2023-02-19T20:24:35.737Z,16.20
2023-02-19T20:27:02.859Z,18.90
2023-02-19T20:29:33.281Z,14.40
2023-02-19T20:32:02.727Z,17.70
2023-02-19T20:34:31.012Z,15.50
2023-02-19T20:36:58.336Z,17.10
2023-02-19T20:39:29.091Z,18.30
2023-02-19T20:41:57.669Z,15.40
2023-02-19T20:44:26.016Z,17.80
2023-02-19T20:46:53.807Z,16.50
2023-02-19T20:49:23.034Z,19.00
2023-02-19T20:51:54.766Z,17.60
2023-02-19T20:54:26.596Z,17.30
2023-02-19T20:56:56.228Z,18.60
2023-02-19T20:59:27.399Z,17.60
2023-02-19T21:01:54.431Z,18.50
2023-02-19T21:04:21.236Z,17.30
2023-02-19T21:06:48.214Z,15.00
2023-02-19T21:09:14.973Z,14.80
2023-02-19T21:11:42.726Z,16.30
2023-02-19T21:14:09.546Z,17.70
2023-02-19T21:16:36.885Z,19.30
2023-02-19T21:19:04.492Z,17.30
2023-02-19T21:21:32.054Z,18.80
2023-02-19T21:24:00.178Z,17.00
2023-02-19T21:26:37.780Z,15.80
2023-02-19T21:29:06.823Z,15.70
2023-02-19T21:31:39.636Z,17.80
2023-02-19T21:34:08.763Z,13.40
2023-02-19T21:36:36.351Z,18.00
2023-02-19T21:39:05.147Z,15.50
2023-02-19T21:41:32.106Z,20.40
2023-02-19T21:43:59.244Z,19.40
2023-02-19T21:46:26.228Z,18.90
2023-02-19T21:48:55.934Z,15.30
2023-02-19T21:51:30.028Z,18.60
2023-02-19T21:53:57.739Z,18.50
2023-02-19T21:56:28.272Z,20.10
2023-02-19T21:58:55.047Z,16.40
2023-02-19T22:01:29.961Z,25.00
2023-02-19T22:03:56.709Z,19.70
2023-02-19T22:06:28.641Z,20.00
2023-02-19T22:08:55.734Z,17.40
2023-02-19T22:11:22.643Z,17.10
2023-02-19T22:13:49.778Z,17.40
2023-02-19T22:16:17.674Z,17.60
2023-02-19T22:18:58.481Z,18.90
2023-02-19T22:21:28.036Z,16.50
2023-02-19T22:23:55.617Z,18.10
2023-02-19T22:26:25.918Z,15.20
2023-02-19T22:28:53.377Z,15.60
2023-02-19T22:31:23.278Z,15.50
2023-02-19T22:36:23.339Z,17.60
2023-02-19T22:38:50.308Z,18.60
2023-02-19T22:41:18.568Z,17.30
2023-02-19T22:43:45.993Z,22.60
2023-02-19T22:46:19.748Z,19.90
2023-02-19T22:48:47.487Z,23.00
2023-02-19T22:51:18.255Z,22.30
2023-02-19T22:53:46.528Z,24.30
2023-02-19T22:56:15.398Z,22.80
2023-02-19T22:58:42.905Z,23.90
2023-02-19T23:01:10.857Z,23.80
2023-02-19T23:03:50.288Z,24.80
2023-02-19T23:06:21.189Z,21.50
2023-02-19T23:08:47.931Z,22.90
2023-02-19T23:11:24.874Z,21.20
2023-02-19T23:13:52.252Z,18.90
2023-02-19T23:16:19.322Z,20.30
2023-02-19T23:18:46.833Z,21.10
2023-02-19T23:21:13.942Z,17.80
2023-02-19T23:23:42.474Z,19.20
2023-02-19T23:26:10.530Z,16.00
2023-02-19T23:28:40.003Z,19.00
2023-02-19T23:31:07.096Z,19.50
2023-02-19T23:33:34.516Z,19.90
2023-02-19T23:36:01.301Z,18.00
2023-02-19T23:38:28.131Z,18.80
2023-02-19T23:40:54.837Z,22.50
2023-02-19T23:43:21.948Z,18.30
2023-02-19T23:45:48.663Z,17.40
2023-02-19T23:48:15.601Z,14.90
2023-02-19T23:50:42.802Z,17.60
2023-02-19T23:53:10.503Z,16.30
2023-02-19T23:55:37.231Z,17.80
2023-02-19T23:58:04.139Z,16.00
